Time;durP1;ratioP1;P1;durP2;ratioP2;P2;SDS_P1;SDS_P2;PMS_P1;PMS_P2;Temp;Humidity;BMP_temperature;BMP_pressure;BME280_temperature;BME280_humidity;BME280_pressure;Samples;Min_cycle;Max_cycle;Signal;HPM_P1;HPM_P2
2023/09/07 00:00:15;;;;;;;;;;;21.70;53.00;;;17.81;90.87;95749.22;4992179;28;19999;-49
2023/09/07 00:02:41;;;;;;;;;;;21.60;53.00;;;17.75;91.26;95755.78;4992161;28;19918;-50
2023/09/07 00:05:07;;;;;;;;;;;21.60;53.10;;;17.70;92.09;95762.09;4991514;28;19916;-49
2023/09/07 00:07:34;;;;;;;;;;;21.60;53.20;;;17.66;92.52;95757.63;4992507;28;19916;-51
2023/09/07 00:10:00;;;;;;;;;;;21.50;53.20;;;17.64;92.39;95746.34;4991384;28;20360;-47
2023/09/07 00:12:27;;;;;;;;;;;21.50;53.40;;;17.65;91.97;95758.72;4992605;28;19960;-49
2023/09/07 00:14:54;;;;;;;;;;;21.40;53.40;;;17.64;91.69;95754.44;4992322;28;20331;-49
2023/09/07 00:17:21;;;;;;;;;;;21.40;53.60;;;17.64;90.92;95760.59;4991294;28;19916;-49
2023/09/07 00:19:49;;;;;;;;;;;21.40;53.70;;;17.65;90.39;95756.03;4992380;28;19909;-52
2023/09/07 00:22:15;;;;;;;;;;;21.40;53.80;;;17.64;90.08;95755.22;4991286;28;19917;-51
2023/09/07 00:24:41;;;;;;;;;;;21.40;53.80;;;17.62;89.70;95754.75;4992056;28;19910;-49
2023/09/07 00:27:07;;;;;;;;;;;21.40;53.80;;;17.61;89.84;95757.72;4992480;28;19916;-51
2023/09/07 00:29:35;;;;;;;;;;;21.40;53.80;;;17.58;89.71;95753.78;4991015;28;19916;-52
2023/09/07 00:32:01;;;;;;;;;;;21.40;53.80;;;17.57;89.53;95755.63;4992043;28;19936;-50
2023/09/07 00:34:27;;;;;;;;;;;21.40;54.40;;;17.57;89.29;95754.84;4991102;28;20287;-51
2023/09/07 00:36:52;;;;;;;;;;;21.30;53.80;;;17.57;89.35;95760.25;4992063;28;19917;-50
2023/09/07 00:39:18;;;;;;;;;;;21.30;53.80;;;17.51;89.71;95758.75;4990861;28;20318;-49
2023/09/07 00:41:44;;;;;;;;;;;21.30;53.80;;;17.45;89.95;95755.38;4992134;28;20477;-49
2023/09/07 00:44:09;;;;;;;;;;;21.30;53.80;;;17.42;90.40;95757.88;4992177;28;19916;-55
2023/09/07 00:46:36;;;;;;;;;;;21.30;53.80;;;17.36;90.83;95757.22;4990364;28;20003;-51
2023/09/07 00:49:04;;;;;;;;;;;21.20;53.80;;;17.33;90.91;95755.94;4986655;28;19916;-52
2023/09/07 00:51:30;;;;;;;;;;;21.20;53.90;;;17.29;90.65;95760.31;4991240;28;20288;-48
2023/09/07 00:53:58;;;;;;;;;;;21.10;53.80;;;17.24;90.97;95751.56;4991755;28;20004;-54
2023/09/07 00:56:26;;;;;;;;;;;21.10;53.90;;;17.23;91.84;95755.34;4992136;28;19921;-54
2023/09/07 00:58:54;;;;;;;;;;;21.10;54.00;;;17.17;91.48;95761.94;4991270;28;19955;-53
2023/09/07 01:01:23;;;;;;;;;;;21.00;53.90;;;17.09;92.27;95766.16;4994015;28;19921;-56
2023/09/07 01:03:50;;;;;;;;;;;21.00;54.00;;;16.98;92.68;95762.84;4994736;28;19964;-53
2023/09/07 01:06:24;;;;;;;;;;;20.90;54.00;;;16.92;92.76;95763.25;4995687;28;19910;-51
2023/09/07 01:08:54;;;;;;;;;;;20.80;54.00;;;16.83;93.60;95763.97;4995730;28;19916;-53
2023/09/07 01:11:22;;;;;;;;;;;20.80;54.10;;;16.76;93.00;95752.81;4992538;28;19916;-54
2023/09/07 01:13:48;;;;;;;;;;;20.70;54.20;;;16.76;93.61;95760.06;4995518;28;19913;-56
2023/09/07 01:16:15;;;;;;;;;;;20.70;54.20;;;16.74;93.06;95752.28;4995156;28;20455;-52
2023/09/07 01:18:41;;;;;;;;;;;20.70;54.40;;;16.73;93.26;95753.38;4995848;28;19956;-53
2023/09/07 01:21:09;;;;;;;;;;;20.70;54.50;;;16.75;92.97;95755.78;4994369;28;19921;-53
2023/09/07 01:23:42;;;;;;;;;;;20.60;54.40;;;16.74;93.00;95748.81;4994458;28;19937;-54
2023/09/07 01:26:10;;;;;;;;;;;20.60;54.50;;;16.69;93.42;95747.00;4994442;28;20000;-55
2023/09/07 01:28:39;;;;;;;;;;;20.60;54.50;;;16.63;93.51;95748.19;4994621;28;19910;-55
2023/09/07 01:31:06;;;;;;;;;;;20.50;54.40;;;16.57;94.05;95744.81;4995452;28;20331;-52
2023/09/07 01:33:32;;;;;;;;;;;20.50;54.50;;;16.50;93.50;95755.16;4993847;28;19940;-53
2023/09/07 01:35:58;;;;;;;;;;;20.40;54.50;;;16.42;93.11;95758.53;4995441;28;19909;-54
2023/09/07 01:38:24;;;;;;;;;;;20.40;54.60;;;16.33;93.64;95757.66;4979211;28;20000;-50
2023/09/07 01:40:49;;;;;;;;;;;20.30;54.60;;;16.25;95.88;95756.44;4978391;28;19948;-55
2023/09/07 01:43:15;;;;;;;;;;;20.30;54.60;;;16.18;97.30;95753.34;4975794;28;19952;-50
2023/09/07 01:45:41;;;;;;;;;;;20.20;54.60;;;16.10;98.66;95752.09;4978272;28;19909;-51
2023/09/07 01:48:11;;;;;;;;;;;20.20;54.80;;;16.03;98.91;95745.53;4991025;28;20372;-54
2023/09/07 01:50:37;;;;;;;;;;;20.10;54.80;;;15.91;100.00;95749.47;4975736;28;19909;-56
2023/09/07 01:53:04;;;;;;;;;;;20.00;54.80;;;15.82;100.00;95750.44;4986841;28;20408;-56
2023/09/07 01:55:33;;;;;;;;;;;20.00;55.00;;;15.71;100.00;95757.88;4975770;28;19910;-54
2023/09/07 01:57:58;;;;;;;;;;;19.90;55.10;;;15.61;100.00;95748.06;4977445;28;19910;-50
2023/09/07 02:00:25;;;;;;;;;;;19.80;55.10;;;15.57;100.00;95748.91;4989412;28;19952;-53
2023/09/07 02:02:50;;;;;;;;;;;19.80;55.20;;;15.56;100.00;95750.81;5000966;23;19917;-53
2023/09/07 02:05:16;;;;;;;;;;;19.70;55.80;;;15.50;100.00;95752.75;5003613;28;19921;-52
2023/09/07 02:07:43;;;;;;;;;;;19.60;55.30;;;15.43;100.00;95757.72;5003278;28;19916;-56
2023/09/07 02:10:09;;;;;;;;;;;19.50;55.40;;;15.37;100.00;95756.19;4989360;28;19943;-51
2023/09/07 02:12:35;;;;;;;;;;;19.50;55.50;;;15.29;100.00;95748.78;5004937;28;19924;-51
2023/09/07 02:15:04;;;;;;;;;;;19.40;55.60;;;15.24;100.00;95754.22;5000753;28;19913;-52
2023/09/07 02:17:30;;;;;;;;;;;19.30;55.60;;;15.19;100.00;95755.09;4985766;28;19910;-54
2023/09/07 02:19:56;;;;;;;;;;;19.30;55.70;;;15.14;100.00;95754.38;5011739;28;20291;-52
2023/09/07 02:22:22;;;;;;;;;;;19.20;55.80;;;15.09;100.00;95754.44;4995358;28;20007;-51
2023/09/07 02:24:48;;;;;;;;;;;19.20;55.90;;;15.03;100.00;95756.38;5003996;28;20333;-49
2023/09/07 02:27:14;;;;;;;;;;;19.20;56.00;;;14.97;100.00;95757.53;4992260;28;19921;-52
2023/09/07 02:29:40;;;;;;;;;;;19.00;56.10;;;14.94;100.00;95760.78;5001919;28;20402;-51
2023/09/07 02:32:06;;;;;;;;;;;19.00;56.10;;;14.86;100.00;95762.25;4998038;28;19944;-54
2023/09/07 02:34:31;;;;;;;;;;;19.00;56.20;;;14.83;100.00;95765.50;5010597;28;20007;-54
2023/09/07 02:36:57;;;;;;;;;;;18.90;56.20;;;14.79;100.00;95765.28;5013003;28;20019;-51
2023/09/07 02:39:26;;;;;;;;;;;18.90;56.30;;;14.73;100.00;95774.47;5000674;28;20364;-52
2023/09/07 02:41:52;;;;;;;;;;;18.80;56.40;;;14.67;100.00;95764.88;5005199;28;19928;-50
2023/09/07 02:44:18;;;;;;;;;;;18.80;56.50;;;14.64;100.00;95764.66;5012826;28;20040;-52
2023/09/07 02:46:44;;;;;;;;;;;18.70;56.50;;;14.61;100.00;95765.22;5000396;28;19920;-54
2023/09/07 02:49:10;;;;;;;;;;;18.70;56.60;;;14.56;100.00;95764.16;5003041;28;19909;-55
2023/09/07 02:51:36;;;;;;;;;;;18.60;56.70;;;14.51;100.00;95761.56;5008482;28;19913;-56
2023/09/07 02:54:03;;;;;;;;;;;18.60;56.80;;;14.48;100.00;95755.94;5002819;28;19909;-56
2023/09/07 02:56:29;;;;;;;;;;;18.50;56.80;;;14.44;100.00;95744.19;5003523;28;19968;-50
2023/09/07 02:58:55;;;;;;;;;;;18.50;57.00;;;14.41;100.00;95747.44;4992298;28;19909;-50
2023/09/07 03:01:22;;;;;;;;;;;18.50;57.10;;;14.38;100.00;95748.78;5025195;28;20307;-52
2023/09/07 03:03:48;;;;;;;;;;;18.40;57.20;;;14.34;100.00;95751.25;5007750;28;19921;-52
2023/09/07 03:06:18;;;;;;;;;;;18.40;57.30;;;14.32;100.00;95753.44;5009995;28;19913;-51
2023/09/07 03:08:44;;;;;;;;;;;18.40;57.40;;;14.37;100.00;95744.53;5012367;28;20008;-55
2023/09/07 03:11:11;;;;;;;;;;;18.40;57.50;;;14.41;100.00;95752.78;5002042;28;19992;-52
2023/09/07 03:13:37;;;;;;;;;;;18.40;57.60;;;14.48;100.00;95745.22;5011652;28;19959;-49
2023/09/07 03:16:04;;;;;;;;;;;18.40;57.70;;;14.52;100.00;95746.28;5010716;28;19909;-56
2023/09/07 03:18:31;;;;;;;;;;;18.40;57.80;;;14.56;100.00;95745.41;5007616;28;19916;-50
2023/09/07 03:21:02;;;;;;;;;;;18.50;57.90;;;14.62;100.00;95748.03;5012159;28;19917;-53
2023/09/07 03:23:30;;;;;;;;;;;18.50;57.90;;;14.66;100.00;95752.53;4987022;28;19945;-56
2023/09/07 03:25:57;;;;;;;;;;;18.50;58.00;;;14.70;100.00;95752.78;5010639;28;20011;-54
2023/09/07 03:28:24;;;;;;;;;;;18.60;58.10;;;14.72;100.00;95756.75;5001918;28;20011;-52
2023/09/07 03:30:51;;;;;;;;;;;18.60;58.20;;;14.73;100.00;95753.00;5008480;28;19955;-55
2023/09/07 03:33:17;;;;;;;;;;;18.60;58.20;;;14.76;100.00;95751.63;5009127;28;20003;-50
2023/09/07 03:35:43;;;;;;;;;;;18.70;58.20;;;14.80;100.00;95752.66;5011090;28;20059;-51
2023/09/07 03:38:09;;;;;;;;;;;18.70;58.10;;;14.78;100.00;95760.97;5011601;28;19916;-53
2023/09/07 03:40:34;;;;;;;;;;;18.70;58.10;;;14.76;100.00;95760.47;5005656;28;19916;-51
2023/09/07 03:43:00;;;;;;;;;;;18.70;58.10;;;14.75;100.00;95761.53;5011525;28;19963;-53
2023/09/07 03:45:26;;;;;;;;;;;18.70;58.70;;;14.72;100.00;95759.44;5009944;28;19909;-51
2023/09/07 03:47:52;;;;;;;;;;;18.70;58.00;;;14.67;100.00;95764.88;4993490;28;19913;-52
2023/09/07 03:50:17;;;;;;;;;;;18.70;58.00;;;14.64;100.00;95760.09;5011514;28;19916;-56
2023/09/07 03:52:43;;;;;;;;;;;18.70;58.00;;;14.57;100.00;95755.06;4999475;28;19967;-56
2023/09/07 03:55:09;;;;;;;;;;;18.60;58.00;;;14.55;100.00;95759.13;5011059;28;20379;-57
2023/09/07 03:57:35;;;;;;;;;;;18.60;58.10;;;14.51;100.00;95755.41;4999695;28;20433;-57
2023/09/07 04:00:01;;;;;;;;;;;18.60;58.10;;;14.46;100.00;95748.19;5010964;28;19909;-56
2023/09/07 04:02:28;;;;;;;;;;;18.50;58.00;;;14.42;100.00;95757.09;5010936;28;26700;-56
2023/09/07 04:04:57;;;;;;;;;;;18.50;58.10;;;14.40;100.00;95756.56;5003057;28;19963;-56
2023/09/07 04:07:24;;;;;;;;;;;18.50;58.10;;;14.37;100.00;95757.13;5011844;28;19940;-53
2023/09/07 04:09:51;;;;;;;;;;;18.40;58.10;;;14.34;100.00;95761.16;5006923;28;20380;-55
2023/09/07 04:12:16;;;;;;;;;;;18.40;58.10;;;14.29;100.00;95766.56;4990322;28;19917;-54
2023/09/07 04:14:42;;;;;;;;;;;18.40;58.20;;;14.24;100.00;95764.75;5026077;28;19916;-56
2023/09/07 04:17:08;;;;;;;;;;;18.40;58.30;;;14.20;100.00;95765.63;5003650;28;19979;-55
2023/09/07 04:19:34;;;;;;;;;;;18.30;58.30;;;14.16;100.00;95769.91;5010620;28;20401;-56
2023/09/07 04:22:00;;;;;;;;;;;18.30;58.40;;;14.14;100.00;95764.06;5003869;28;19913;-51
2023/09/07 04:24:29;;;;;;;;;;;18.20;59.00;;;14.09;100.00;95764.91;5001220;28;19945;-55
2023/09/07 04:27:00;;;;;;;;;;;18.20;58.50;;;14.03;100.00;95763.34;5011323;28;20047;-51
2023/09/07 04:29:27;;;;;;;;;;;18.10;58.40;;;13.98;100.00;95766.88;5001836;28;20437;-51
2023/09/07 04:31:53;;;;;;;;;;;18.10;58.60;;;13.94;100.00;95765.81;5010809;28;19963;-56
2023/09/07 04:34:21;;;;;;;;;;;18.10;58.60;;;13.90;100.00;95764.78;5001690;28;19909;-52
2023/09/07 04:36:46;;;;;;;;;;;18.00;58.60;;;13.87;100.00;95766.16;5007393;28;19924;-52
2023/09/07 04:39:14;;;;;;;;;;;18.00;58.70;;;13.86;100.00;95766.44;5010827;28;19913;-54
2023/09/07 04:41:40;;;;;;;;;;;17.90;58.80;;;13.83;100.00;95767.00;5007439;28;20276;-53
2023/09/07 04:44:06;;;;;;;;;;;17.90;58.90;;;13.84;100.00;95773.94;5010925;28;19933;-55
2023/09/07 04:46:32;;;;;;;;;;;17.90;59.00;;;13.84;100.00;95773.94;5003173;28;19952;-53
2023/09/07 04:48:58;;;;;;;;;;;17.90;59.10;;;13.82;100.00;95773.41;5001956;28;19916;-53
2023/09/07 04:51:25;;;;;;;;;;;17.90;59.10;;;13.80;100.00;95778.28;5007898;28;19913;-51
2023/09/07 04:53:51;;;;;;;;;;;17.90;59.20;;;13.78;100.00;95775.84;4982578;28;19909;-53
2023/09/07 04:56:17;;;;;;;;;;;17.90;59.20;;;13.76;100.00;95778.03;4991480;28;19936;-53
2023/09/07 04:58:43;;;;;;;;;;;17.90;59.30;;;13.76;100.00;95778.03;5001267;28;19916;-56
2023/09/07 05:01:11;;;;;;;;;;;17.90;59.30;;;13.77;100.00;95781.50;5010768;28;20307;-56
2023/09/07 05:03:39;;;;;;;;;;;17.90;59.40;;;13.78;100.00;95778.53;5006837;28;19925;-55
2023/09/07 05:06:06;;;;;;;;;;;17.90;59.40;;;13.80;100.00;95783.63;4991094;28;19913;-52
2023/09/07 05:08:32;;;;;;;;;;;17.90;59.40;;;13.82;100.00;95784.13;4991346;28;19909;-54
2023/09/07 05:11:05;;;;;;;;;;;17.90;59.50;;;13.86;100.00;95782.50;4994945;28;19916;-54
2023/09/07 05:13:31;;;;;;;;;;;17.90;59.50;;;13.89;100.00;95781.94;5003950;28;20016;-52
2023/09/07 05:16:01;;;;;;;;;;;18.00;59.60;;;13.93;100.00;95785.66;4989788;28;19936;-50
2023/09/07 05:18:26;;;;;;;;;;;18.00;59.60;;;13.97;100.00;95781.31;5004032;28;20460;-49
2023/09/07 05:20:52;;;;;;;;;;;18.10;59.60;;;13.97;100.00;95784.00;4978139;28;20011;-50
2023/09/07 05:23:20;;;;;;;;;;;18.10;59.60;;;13.97;100.00;95780.53;4983690;28;20532;-50
2023/09/07 05:25:48;;;;;;;;;;;18.10;59.60;;;14.04;100.00;95783.69;4973461;28;19918;-48
2023/09/07 05:28:15;;;;;;;;;;;18.20;59.70;;;14.09;100.00;95779.09;4977924;28;19913;-48
2023/09/07 05:30:42;;;;;;;;;;;18.30;59.70;;;14.13;100.00;95787.34;4978115;28;20293;-51
2023/09/07 05:33:15;;;;;;;;;;;18.30;59.70;;;14.14;100.00;95785.50;5003303;28;19958;-47
2023/09/07 05:35:42;;;;;;;;;;;18.40;59.70;;;14.16;100.00;95788.66;4991004;28;19939;-46
2023/09/07 05:38:08;;;;;;;;;;;18.40;59.70;;;14.18;100.00;95797.22;4990697;28;19920;-49
2023/09/07 05:40:42;;;;;;;;;;;18.40;59.70;;;14.23;100.00;95798.00;4994478;28;19917;-48
2023/09/07 05:43:08;;;;;;;;;;;18.50;59.70;;;14.30;100.00;95798.44;4998446;28;19953;-48
2023/09/07 05:45:40;;;;;;;;;;;18.50;59.70;;;14.40;100.00;95804.81;4997255;28;19913;-49
2023/09/07 05:48:08;;;;;;;;;;;18.60;59.80;;;14.52;100.00;95799.88;4994317;28;20321;-47
2023/09/07 05:50:38;;;;;;;;;;;18.70;59.80;;;14.71;100.00;95803.44;4987572;28;20007;-48
2023/09/07 05:53:05;;;;;;;;;;;18.90;59.80;;;15.00;100.00;95800.66;4987630;28;19916;-50
2023/09/07 05:55:31;;;;;;;;;;;19.20;59.80;;;15.27;100.00;95805.44;4994631;28;19916;-52
2023/09/07 05:57:58;;;;;;;;;;;19.50;59.80;;;15.54;100.00;95801.31;5007265;28;19924;-49
2023/09/07 06:00:24;;;;;;;;;;;19.70;59.70;;;15.86;100.00;95805.19;4992802;28;19936;-54
2023/09/07 06:02:50;;;;;;;;;;;20.10;59.60;;;16.17;100.00;95810.88;4986088;28;19913;-51
2023/09/07 06:05:17;;;;;;;;;;;20.40;59.40;;;16.47;100.00;95814.91;5004878;28;19909;-55
2023/09/07 06:07:44;;;;;;;;;;;20.80;59.20;;;16.76;100.00;95811.97;5004316;28;20430;-52
2023/09/07 06:10:10;;;;;;;;;;;21.10;59.00;;;17.09;100.00;95818.06;4995434;28;20340;-57
2023/09/07 06:12:36;;;;;;;;;;;21.50;58.80;;;17.34;98.28;95821.34;5013603;28;19909;-49
2023/09/07 06:15:03;;;;;;;;;;;21.90;58.50;;;17.63;96.59;95815.59;5011881;28;20402;-53
2023/09/07 06:17:29;;;;;;;;;;;22.30;58.20;;;17.88;94.38;95810.75;4999904;28;19955;-50
2023/09/07 06:19:56;;;;;;;;;;;22.70;58.00;;;18.13;91.33;95818.22;4982828;28;19945;-50
2023/09/07 06:22:22;;;;;;;;;;;23.00;57.50;;;18.44;91.27;95810.19;4992023;28;20288;-49
2023/09/07 06:24:49;;;;;;;;;;;23.40;57.20;;;18.75;89.16;95812.13;4994819;28;19909;-52
2023/09/07 06:27:15;;;;;;;;;;;23.70;56.90;;;19.00;87.17;95810.63;5013091;28;19944;-51
2023/09/07 06:29:41;;;;;;;;;;;24.10;56.50;;;19.28;86.93;95813.88;4992029;28;19941;-49
2023/09/07 06:32:06;;;;;;;;;;;24.40;56.00;;;19.53;85.00;95817.75;4993540;28;19913;-50
2023/09/07 06:34:32;;;;;;;;;;;24.70;55.70;;;19.75;83.77;95810.66;4991985;28;20383;-51
2023/09/07 06:36:58;;;;;;;;;;;24.90;55.20;;;19.92;81.92;95820.66;4993455;28;19917;-50
2023/09/07 06:39:24;;;;;;;;;;;25.20;54.90;;;20.14;81.27;95819.69;4994960;28;19919;-52
2023/09/07 06:41:49;;;;;;;;;;;25.30;54.60;;;20.42;80.32;95815.50;4992905;28;19924;-57
2023/09/07 06:44:15;;;;;;;;;;;25.50;54.40;;;20.52;77.87;95820.59;4994625;28;20357;-57
2023/09/07 06:46:41;;;;;;;;;;;25.70;54.10;;;20.68;76.51;95818.19;5010361;28;20360;-53
2023/09/07 06:49:07;;;;;;;;;;;25.90;53.80;;;20.82;75.56;95819.91;4985424;28;19957;-52
2023/09/07 06:51:33;;;;;;;;;;;26.10;53.50;;;21.03;74.73;95824.25;4992682;28;19909;-47
2023/09/07 06:53:59;;;;;;;;;;;26.20;53.30;;;21.17;73.96;95825.94;4992319;28;19909;-53
2023/09/07 06:56:26;;;;;;;;;;;26.40;53.10;;;21.29;73.18;95822.56;4992929;28;19987;-55
2023/09/07 06:58:53;;;;;;;;;;;26.50;52.90;;;21.47;71.93;95819.44;4991711;28;19997;-50
2023/09/07 07:01:19;;;;;;;;;;;26.70;52.60;;;21.67;71.34;95825.22;4993141;28;20067;-50
2023/09/07 07:03:45;;;;;;;;;;;26.90;52.50;;;21.88;70.14;95825.22;4991573;28;19921;-52
2023/09/07 07:06:11;;;;;;;;;;;27.00;52.30;;;22.13;69.45;95826.94;4992888;28;19909;-52
2023/09/07 07:08:36;;;;;;;;;;;27.30;52.10;;;22.20;69.16;95823.72;4992661;28;20009;-47
2023/09/07 07:11:02;;;;;;;;;;;27.40;51.90;;;22.47;68.70;95826.94;4991921;28;19916;-48
2023/09/07 07:13:29;;;;;;;;;;;27.60;51.70;;;22.75;68.19;95825.25;4991965;28;20016;-53
2023/09/07 07:15:55;;;;;;;;;;;27.80;51.50;;;23.04;67.12;95821.56;4988209;28;19909;-50
2023/09/07 07:18:20;;;;;;;;;;;28.10;51.40;;;23.16;66.49;95822.69;4986875;28;19936;-52
2023/09/07 07:20:46;;;;;;;;;;;28.30;51.10;;;23.17;66.13;95822.34;4989059;28;19924;-47
2023/09/07 07:23:15;;;;;;;;;;;28.50;50.70;;;23.38;66.10;95826.88;4998138;28;20338;-51
2023/09/07 07:25:40;;;;;;;;;;;28.60;50.40;;;23.76;65.28;95831.97;5011549;28;19909;-49
2023/09/07 07:28:07;;;;;;;;;;;28.90;50.40;;;24.03;63.38;95833.13;5007802;28;20331;-48
2023/09/07 07:30:40;;;;;;;;;;;29.20;50.20;;;24.05;62.33;95830.88;5004221;28;19916;-48
2023/09/07 07:33:07;;;;;;;;;;;29.50;50.00;;;24.35;62.14;95828.63;5011870;28;19924;-51
2023/09/07 07:35:34;;;;;;;;;;;29.70;49.70;;;24.57;62.17;95831.91;5001211;28;19945;-51
2023/09/07 07:38:01;;;;;;;;;;;29.90;49.40;;;24.70;60.85;95828.81;5011222;28;19995;-51
2023/09/07 07:40:27;;;;;;;;;;;30.20;49.20;;;24.97;60.86;95837.25;5002761;28;19917;-51
2023/09/07 07:42:53;;;;;;;;;;;30.40;48.90;;;25.23;59.67;95834.03;5023168;28;19923;-50
2023/09/07 07:45:20;;;;;;;;;;;30.60;48.60;;;25.53;58.50;95836.28;5004294;28;20280;-55
2023/09/07 07:47:46;;;;;;;;;;;30.90;48.40;;;25.87;57.40;95828.50;5003378;28;19913;-51
2023/09/07 07:50:14;;;;;;;;;;;31.10;48.20;;;26.18;56.73;95838.50;5011584;28;20370;-52
2023/09/07 07:52:40;;;;;;;;;;;31.40;48.00;;;26.43;55.89;95830.81;5000600;28;19920;-54
2023/09/07 07:55:06;;;;;;;;;;;31.70;48.40;;;26.68;54.92;95828.56;5010024;28;20306;-51
2023/09/07 07:57:32;;;;;;;;;;;32.10;47.50;;;26.94;53.91;95831.38;5007957;28;19913;-51
2023/09/07 07:59:58;;;;;;;;;;;32.30;47.10;;;27.05;53.51;95828.06;5004489;28;20321;-50
2023/09/07 08:02:24;;;;;;;;;;;32.60;46.70;;;27.17;53.63;95830.63;5005929;28;19916;-55
2023/09/07 08:04:50;;;;;;;;;;;32.90;46.50;;;27.46;52.98;95829.13;5006031;23;19957;-49
2023/09/07 08:07:17;;;;;;;;;;;33.10;46.10;;;27.66;53.18;95824.34;4992176;28;19967;-49
2023/09/07 08:09:43;;;;;;;;;;;33.40;45.90;;;27.82;52.08;95826.94;4992659;28;19943;-47
2023/09/07 08:12:08;;;;;;;;;;;33.70;45.60;;;28.09;52.45;95833.16;4991029;28;19917;-48
2023/09/07 08:14:35;;;;;;;;;;;33.90;45.40;;;28.29;51.52;95823.63;4987605;28;19910;-50
2023/09/07 08:17:01;;;;;;;;;;;34.20;45.10;;;28.32;50.88;95827.56;4982554;28;19913;-50
2023/09/07 08:19:30;;;;;;;;;;;34.40;44.80;;;28.38;50.55;95818.66;4973167;28;20416;-52
2023/09/07 08:21:58;;;;;;;;;;;34.60;44.40;;;28.64;49.93;95832.66;4976320;28;20376;-49
2023/09/07 08:24:24;;;;;;;;;;;34.80;44.20;;;28.80;48.86;95825.78;4997982;28;19919;-48
2023/09/07 08:26:50;;;;;;;;;;;35.00;43.90;;;28.97;48.83;95829.06;4975872;28;20000;-48
2023/09/07 08:29:17;;;;;;;;;;;35.20;43.70;;;29.15;48.66;95823.78;4982483;28;19956;-47
2023/09/07 08:31:45;;;;;;;;;;;35.40;43.40;;;29.30;48.43;95825.47;4988896;28;20284;-47
2023/09/07 08:34:11;;;;;;;;;;;35.60;43.20;;;29.47;47.63;95827.56;4978586;28;19956;-48
2023/09/07 08:36:37;;;;;;;;;;;35.60;42.80;;;29.30;48.27;95825.47;4975137;28;19948;-54
2023/09/07 08:39:09;;;;;;;;;;;35.70;42.60;;;29.38;47.77;95823.56;4974475;28;19933;-52
2023/09/07 08:41:43;;;;;;;;;;;35.80;42.40;;;29.37;47.50;95822.00;4986436;28;19917;-50
2023/09/07 08:44:11;;;;;;;;;;;36.00;42.20;;;29.34;48.35;95818.06;4972511;28;19914;-48
2023/09/07 08:46:38;;;;;;;;;;;36.00;41.80;;;29.18;48.54;95820.28;4974865;28;19917;-49
2023/09/07 08:49:04;;;;;;;;;;;36.00;41.60;;;29.34;48.36;95822.78;4972915;28;19910;-54
2023/09/07 08:51:37;;;;;;;;;;;36.10;41.60;;;29.61;48.11;95826.09;4972998;28;20269;-49
2023/09/07 08:54:03;;;;;;;;;;;36.20;41.40;;;29.77;47.08;95820.31;4978409;28;20383;-50
2023/09/07 08:56:29;;;;;;;;;;;36.30;41.40;;;29.89;46.70;95820.00;4972791;28;19910;-51
2023/09/07 08:58:55;;;;;;;;;;;36.50;41.30;;;29.85;46.62;95817.25;4983195;28;20253;-49
2023/09/07 09:01:21;;;;;;;;;;;36.60;41.10;;;29.67;46.99;95814.38;4972442;28;19913;-48
2023/09/07 09:03:49;;;;;;;;;;;36.70;40.90;;;29.81;47.25;95810.97;4973688;28;19918;-48
2023/09/07 09:06:19;;;;;;;;;;;36.80;40.70;;;29.97;46.72;95814.19;4972867;28;20347;-48
2023/09/07 09:08:50;;;;;;;;;;;36.90;40.50;;;30.12;46.34;95812.28;5007028;28;20012;-49
2023/09/07 09:11:21;;;;;;;;;;;37.10;40.40;;;30.58;46.57;95808.16;4987536;28;20288;-49
2023/09/07 09:13:50;;;;;;;;;;;37.20;40.20;;;30.40;45.83;95819.88;4986150;28;19913;-48
2023/09/07 09:16:16;;;;;;;;;;;37.40;40.10;;;30.45;45.55;95817.94;4975582;28;20355;-48
2023/09/07 09:18:56;;;;;;;;;;;37.50;39.80;;;30.79;45.21;95816.47;4972669;28;20331;-48
2023/09/07 09:21:24;;;;;;;;;;;37.70;39.70;;;31.07;44.59;95807.47;4972969;28;20008;-52
2023/09/07 09:23:53;;;;;;;;;;;37.80;39.50;;;31.37;44.14;95811.03;4981752;28;19910;-48
2023/09/07 09:26:19;;;;;;;;;;;37.90;39.40;;;31.68;44.06;95812.16;4975355;28;19941;-50
2023/09/07 09:28:46;;;;;;;;;;;38.10;39.20;;;31.88;44.15;95807.81;4984121;28;19913;-49
2023/09/07 09:31:14;;;;;;;;;;;38.20;39.10;;;32.05;43.40;95803.44;4979397;28;19917;-47
2023/09/07 09:33:42;;;;;;;;;;;38.50;39.00;;;32.21;42.30;95803.00;4976267;28;19959;-48
2023/09/07 09:36:08;;;;;;;;;;;38.70;38.80;;;32.20;42.79;95801.44;4988133;28;19932;-48
2023/09/07 09:38:35;;;;;;;;;;;38.90;38.50;;;31.93;43.05;95798.38;4975501;28;19959;-55
2023/09/07 09:41:03;;;;;;;;;;;39.00;38.20;;;31.90;42.93;95793.66;4984945;28;20339;-48
2023/09/07 09:43:29;;;;;;;;;;;39.10;38.10;;;32.14;43.82;95797.53;4993688;28;19963;-50
2023/09/07 09:45:56;;;;;;;;;;;39.20;37.90;;;32.34;42.88;95798.63;4978619;28;20315;-50
2023/09/07 09:48:23;;;;;;;;;;;39.30;37.80;;;32.11;43.00;95795.56;5003912;28;19909;-48
2023/09/07 09:50:50;;;;;;;;;;;39.40;37.60;;;32.08;42.90;95799.13;4975811;28;19914;-51
2023/09/07 09:53:20;;;;;;;;;;;39.50;37.50;;;32.35;42.56;95796.66;4986962;28;20402;-48
2023/09/07 09:55:52;;;;;;;;;;;39.50;37.30;;;32.55;41.63;95795.00;4994771;28;19913;-48
2023/09/07 09:58:18;;;;;;;;;;;39.50;37.10;;;32.68;41.60;95795.31;4994117;28;19913;-48
2023/09/07 10:00:49;;;;;;;;;;;39.60;37.00;;;32.75;41.33;95798.03;4994957;28;19921;-48
2023/09/07 10:03:45;;;;;;;;;;;39.70;37.00;;;32.94;41.29;95789.22;4993853;28;19910;-48
2023/09/07 10:06:31;;;;;;;;;;;39.90;36.90;;;33.31;41.21;95781.47;4999630;28;20387;-48
2023/09/07 10:09:06;;;;;;;;;;;40.10;36.70;;;33.61;40.72;95778.84;4992327;28;19909;-57
2023/09/07 10:11:37;;;;;;;;;;;40.30;36.60;;;33.82;39.99;95786.13;4996160;28;19916;-50
2023/09/07 10:14:05;;;;;;;;;;;40.40;36.40;;;34.03;39.64;95787.88;4993444;28;20008;-50
2023/09/07 10:16:47;;;;;;;;;;;40.50;36.30;;;33.94;38.76;95790.34;4991674;28;19917;-54
2023/09/07 10:19:20;;;;;;;;;;;40.70;36.20;;;33.85;39.37;95785.31;4994906;28;19909;-52
2023/09/07 10:21:47;;;;;;;;;;;40.70;35.90;;;34.07;39.05;95783.13;4993405;28;19914;-51
2023/09/07 10:24:25;;;;;;;;;;;40.80;35.80;;;34.40;38.68;95783.47;4992999;28;20280;-48
2023/09/07 10:27:03;;;;;;;;;;;41.00;36.30;;;34.32;38.50;95776.50;4993406;28;19998;-49
2023/09/07 10:29:29;;;;;;;;;;;41.20;35.50;;;34.45;39.09;95773.97;4993035;28;19913;-48
2023/09/07 10:31:54;;;;;;;;;;;41.20;35.20;;;34.38;38.63;95771.28;4994193;28;20288;-48
2023/09/07 10:34:22;;;;;;;;;;;41.40;35.10;;;34.29;38.21;95764.28;4991901;28;20035;-48
2023/09/07 10:36:52;;;;;;;;;;;41.50;34.90;;;34.14;39.80;95768.44;4994165;28;19944;-47
2023/09/07 10:39:18;;;;;;;;;;;41.50;34.60;;;33.86;39.79;95769.53;4993999;28;19920;-48
2023/09/07 10:41:45;;;;;;;;;;;41.50;34.50;;;33.85;39.60;95768.75;4992852;28;19921;-49
2023/09/07 10:44:13;;;;;;;;;;;41.50;34.40;;;34.17;39.07;95764.84;4989261;28;19913;-50
2023/09/07 10:46:40;;;;;;;;;;;41.50;34.40;;;34.62;38.69;95761.88;4989816;28;19909;-48
2023/09/07 10:49:12;;;;;;;;;;;41.70;34.40;;;35.02;38.20;95764.06;4990745;28;19909;-59
2023/09/07 10:51:46;;;;;;;;;;;41.80;34.30;;;35.02;38.05;95762.06;4998606;28;19940;-53
2023/09/07 10:54:23;;;;;;;;;;;42.00;34.20;;;34.91;37.15;95762.25;4988873;28;20027;-49
2023/09/07 10:56:51;;;;;;;;;;;42.20;34.20;;;34.74;38.29;95761.31;4991264;28;19972;-48
2023/09/07 10:59:17;;;;;;;;;;;42.40;33.80;;;35.00;37.27;95758.94;4989990;28;20082;-51
2023/09/07 11:01:48;;;;;;;;;;;42.60;33.70;;;35.22;36.90;95756.63;4990913;28;19913;-49
2023/09/07 11:04:17;;;;;;;;;;;42.70;33.60;;;35.54;36.75;95755.31;4989049;28;19916;-50
2023/09/07 11:06:43;;;;;;;;;;;42.90;33.40;;;35.73;35.46;95753.75;4990633;28;19956;-50
2023/09/07 11:09:12;;;;;;;;;;;43.10;33.20;;;35.89;35.83;95751.88;4990917;28;19975;-47
2023/09/07 11:11:38;;;;;;;;;;;43.30;33.10;;;35.73;35.61;95753.75;4989766;28;19913;-46
2023/09/07 11:14:05;;;;;;;;;;;43.40;32.70;;;36.04;35.22;95755.19;4986585;28;20171;-48